Time;durP1;ratioP1;P1;durP2;ratioP2;P2;SDS_P1;SDS_P2;PMS_P1;PMS_P2;Temp;Humidity;BMP_temperature;BMP_pressure;BME280_temperature;BME280_humidity;BME280_pressure;Samples;Min_cycle;Max_cycle;Signal;HPM_P1;HPM_P2
2022/10/11 00:00:31;;;;;;;;;;;6.40;99.90;;;;;;5087623;28;19920;-64
2022/10/11 00:02:57;;;;;;;;;;;6.40;99.90;;;;;;5089096;28;20324;-64
2022/10/11 00:05:23;;;;;;;;;;;6.40;99.90;;;;;;5076596;28;19944;-64
2022/10/11 00:07:48;;;;;;;;;;;6.40;99.90;;;;;;5091147;28;19912;-64
2022/10/11 00:10:14;;;;;;;;;;;6.30;99.90;;;;;;5096629;28;20037;-63
2022/10/11 00:12:40;;;;;;;;;;;6.50;99.90;;;;;;5092525;28;19912;-63
2022/10/11 00:15:06;;;;;;;;;;;6.40;99.90;;;;;;5086159;28;19913;-63
2022/10/11 00:17:32;;;;;;;;;;;6.30;99.90;;;;;;5090952;28;19920;-63
2022/10/11 00:19:57;;;;;;;;;;;6.30;99.90;;;;;;5092259;28;19924;-63
2022/10/11 00:22:23;;;;;;;;;;;6.20;99.90;;;;;;5093962;28;19927;-63
2022/10/11 00:24:48;;;;;;;;;;;6.10;99.90;;;;;;5083707;28;19916;-63
2022/10/11 00:27:14;;;;;;;;;;;6.10;99.90;;;;;;5097258;28;19919;-63
2022/10/11 00:29:39;;;;;;;;;;;6.10;99.90;;;;;;5087799;28;19928;-63
2022/10/11 00:32:05;;;;;;;;;;;6.10;99.90;;;;;;5093661;28;19957;-63
2022/10/11 00:34:30;;;;;;;;;;;5.90;99.90;;;;;;5095754;28;19912;-63
2022/10/11 00:36:56;;;;;;;;;;;6.00;99.90;;;;;;5094540;28;19916;-63
2022/10/11 00:39:21;;;;;;;;;;;5.90;99.90;;;;;;5087510;28;19919;-63
2022/10/11 00:41:48;;;;;;;;;;;5.80;99.90;;;;;;5089966;28;19947;-63
2022/10/11 00:44:14;;;;;;;;;;;5.80;99.90;;;;;;5092170;28;19916;-64
2022/10/11 00:46:41;;;;;;;;;;;5.70;99.90;;;;;;5096472;28;19934;-63
2022/10/11 00:49:16;;;;;;;;;;;5.70;99.90;;;;;;5096647;28;19928;-63
2022/10/11 00:51:41;;;;;;;;;;;5.80;99.90;;;;;;5100651;28;19966;-63
2022/10/11 00:54:10;;;;;;;;;;;5.70;99.90;;;;;;5094422;28;19912;-63
2022/10/11 00:56:37;;;;;;;;;;;5.70;99.90;;;;;;5102064;28;19916;-62
2022/10/11 00:59:04;;;;;;;;;;;5.60;99.90;;;;;;5097087;28;19954;-64
2022/10/11 01:01:30;;;;;;;;;;;5.80;99.90;;;;;;5095330;28;19949;-62
2022/10/11 01:03:56;;;;;;;;;;;5.70;99.90;;;;;;5092829;28;19920;-64
2022/10/11 01:06:21;;;;;;;;;;;5.70;99.90;;;;;;5098932;28;19920;-63
2022/10/11 01:08:47;;;;;;;;;;;5.70;99.90;;;;;;5097064;28;20023;-62
2022/10/11 01:11:14;;;;;;;;;;;5.70;99.90;;;;;;5098400;28;20421;-63
2022/10/11 01:13:46;;;;;;;;;;;5.70;99.90;;;;;;5092047;28;19912;-63
2022/10/11 01:16:14;;;;;;;;;;;5.60;99.90;;;;;;5094655;28;20030;-63
2022/10/11 01:18:45;;;;;;;;;;;5.50;99.90;;;;;;5095333;28;19912;-65
2022/10/11 01:21:29;;;;;;;;;;;5.40;99.90;;;;;;5097072;28;19912;-63
2022/10/11 01:24:06;;;;;;;;;;;5.40;99.90;;;;;;5094932;28;19912;-63
2022/10/11 01:26:40;;;;;;;;;;;5.50;99.90;;;;;;5079417;28;19935;-63
2022/10/11 01:29:24;;;;;;;;;;;5.50;99.90;;;;;;5085232;28;19916;-62
2022/10/11 01:32:08;;;;;;;;;;;5.40;99.90;;;;;;5086063;28;19913;-63
2022/10/11 01:34:42;;;;;;;;;;;5.40;99.90;;;;;;5093680;28;20361;-62
2022/10/11 01:37:18;;;;;;;;;;;5.40;99.90;;;;;;5091058;28;19928;-63
2022/10/11 01:39:50;;;;;;;;;;;5.50;99.90;;;;;;5096115;28;21475;-64
2022/10/11 01:42:17;;;;;;;;;;;5.40;99.90;;;;;;5087012;28;19978;-64
2022/10/11 01:44:45;;;;;;;;;;;5.40;99.90;;;;;;5094894;28;19913;-63
2022/10/11 01:47:10;;;;;;;;;;;5.30;99.90;;;;;;5094188;28;19931;-63
2022/10/11 01:49:36;;;;;;;;;;;5.20;99.90;;;;;;5090852;28;19923;-63
2022/10/11 01:52:03;;;;;;;;;;;5.10;99.90;;;;;;5094138;28;19923;-62
2022/10/11 01:54:41;;;;;;;;;;;5.10;99.90;;;;;;5101018;28;19949;-62
2022/10/11 01:57:35;;;;;;;;;;;5.10;99.90;;;;;;5097711;28;19920;-63
2022/10/11 02:00:21;;;;;;;;;;;5.10;99.90;;;;;;5079887;28;19913;-63
2022/10/11 02:02:49;;;;;;;;;;;5.00;99.90;;;;;;5098099;28;19927;-62
2022/10/11 02:05:30;;;;;;;;;;;5.00;99.90;;;;;;5091568;28;19916;-63
2022/10/11 02:08:14;;;;;;;;;;;4.90;99.90;;;;;;5092255;28;19916;-63
2022/10/11 02:11:03;;;;;;;;;;;4.90;99.90;;;;;;5093442;28;19924;-63
2022/10/11 02:13:35;;;;;;;;;;;4.80;99.90;;;;;;5095323;28;19920;-66
2022/10/11 02:16:02;;;;;;;;;;;4.80;99.90;;;;;;5094827;28;20340;-63
2022/10/11 02:18:31;;;;;;;;;;;4.80;99.90;;;;;;5101902;28;19912;-64
2022/10/11 02:20:57;;;;;;;;;;;4.70;99.90;;;;;;5096218;28;19934;-63
2022/10/11 02:23:25;;;;;;;;;;;4.70;99.90;;;;;;5095638;28;19916;-63
2022/10/11 02:25:51;;;;;;;;;;;4.90;99.90;;;;;;5103193;28;19935;-63
2022/10/11 02:28:20;;;;;;;;;;;4.90;99.90;;;;;;5091246;28;19913;-63
2022/10/11 02:30:46;;;;;;;;;;;5.00;99.90;;;;;;5100725;28;20037;-64
2022/10/11 02:33:13;;;;;;;;;;;4.90;99.90;;;;;;5090618;28;19991;-63
2022/10/11 02:35:41;;;;;;;;;;;4.80;99.90;;;;;;5090386;28;19939;-63
2022/10/11 02:38:27;;;;;;;;;;;4.90;99.90;;;;;;5093993;28;20011;-63
2022/10/11 02:40:55;;;;;;;;;;;4.90;99.90;;;;;;5088473;28;19912;-63
2022/10/11 02:43:28;;;;;;;;;;;4.90;99.90;;;;;;5091624;28;19920;-64
2022/10/11 02:46:01;;;;;;;;;;;4.90;99.90;;;;;;5091618;28;20003;-64
2022/10/11 02:48:28;;;;;;;;;;;4.80;99.90;;;;;;5094309;28;19927;-63
2022/10/11 02:50:55;;;;;;;;;;;4.70;99.90;;;;;;5089287;28;20054;-63
2022/10/11 02:53:21;;;;;;;;;;;4.70;99.90;;;;;;5096504;28;20366;-63
2022/10/11 02:55:47;;;;;;;;;;;4.80;99.90;;;;;;5096018;28;20366;-63
2022/10/11 02:58:13;;;;;;;;;;;4.90;99.90;;;;;;5091433;28;19958;-63
2022/10/11 03:00:39;;;;;;;;;;;4.80;99.90;;;;;;5100626;28;20259;-63
2022/10/11 03:03:04;;;;;;;;;;;4.90;99.90;;;;;;5093224;28;19916;-63
2022/10/11 03:05:30;;;;;;;;;;;4.80;99.90;;;;;;5102606;28;19912;-63
2022/10/11 03:07:55;;;;;;;;;;;4.80;99.90;;;;;;5085521;28;19912;-63
2022/10/11 03:10:21;;;;;;;;;;;4.80;99.90;;;;;;5100397;28;19920;-62
2022/10/11 03:12:48;;;;;;;;;;;4.80;99.90;;;;;;5091293;28;21592;-63
2022/10/11 03:15:15;;;;;;;;;;;4.80;99.90;;;;;;5089280;28;19916;-63
2022/10/11 03:17:40;;;;;;;;;;;4.80;99.90;;;;;;5093365;28;20135;-63
2022/10/11 03:20:06;;;;;;;;;;;4.70;99.90;;;;;;5098812;28;20290;-63
2022/10/11 03:22:32;;;;;;;;;;;4.60;99.90;;;;;;5095575;28;19916;-63
2022/10/11 03:24:57;;;;;;;;;;;4.60;99.90;;;;;;5087522;28;19919;-63
2022/10/11 03:27:23;;;;;;;;;;;4.60;99.90;;;;;;5096736;28;20348;-63
2022/10/11 03:29:48;;;;;;;;;;;4.70;99.90;;;;;;5087528;28;19928;-63
2022/10/11 03:32:14;;;;;;;;;;;4.60;99.90;;;;;;5098113;28;19912;-65
2022/10/11 03:34:39;;;;;;;;;;;4.50;99.90;;;;;;5098040;28;19961;-63
2022/10/11 03:37:05;;;;;;;;;;;4.50;99.90;;;;;;5093974;28;19916;-63
2022/10/11 03:39:30;;;;;;;;;;;4.40;99.90;;;;;;5094669;28;19922;-63
2022/10/11 03:41:56;;;;;;;;;;;4.30;99.90;;;;;;5100641;28;20257;-63
2022/10/11 03:44:22;;;;;;;;;;;4.30;99.90;;;;;;5096003;28;19924;-63
2022/10/11 03:46:47;;;;;;;;;;;4.30;99.90;;;;;;5093206;28;19932;-63
2022/10/11 03:49:13;;;;;;;;;;;4.30;99.90;;;;;;5100549;28;19924;-63
2022/10/11 03:51:38;;;;;;;;;;;4.30;99.90;;;;;;5096459;28;20017;-63
2022/10/11 03:54:04;;;;;;;;;;;4.40;99.90;;;;;;5098645;28;19912;-63
2022/10/11 03:56:29;;;;;;;;;;;4.30;99.90;;;;;;5092296;28;20349;-63
2022/10/11 03:58:55;;;;;;;;;;;4.30;99.90;;;;;;5095872;28;19916;-64
2022/10/11 04:01:20;;;;;;;;;;;4.40;99.90;;;;;;5088471;28;19916;-64
2022/10/11 04:03:46;;;;;;;;;;;4.40;99.90;;;;;;5090938;28;19916;-63
2022/10/11 04:06:11;;;;;;;;;;;4.30;99.90;;;;;;5093605;28;20308;-62
2022/10/11 04:08:37;;;;;;;;;;;4.20;99.90;;;;;;5087706;28;19948;-62
2022/10/11 04:11:02;;;;;;;;;;;4.20;99.90;;;;;;5094218;28;19924;-63
2022/10/11 04:13:28;;;;;;;;;;;4.30;99.90;;;;;;5093099;28;19912;-62
2022/10/11 04:15:53;;;;;;;;;;;4.30;99.90;;;;;;5089584;28;19923;-63
2022/10/11 04:18:19;;;;;;;;;;;4.40;99.90;;;;;;5091533;28;19919;-62
2022/10/11 04:20:44;;;;;;;;;;;4.30;99.90;;;;;;5091785;28;20003;-63
2022/10/11 04:23:10;;;;;;;;;;;4.30;99.90;;;;;;5091301;28;20376;-63
2022/10/11 04:25:37;;;;;;;;;;;4.20;99.90;;;;;;5091874;28;19920;-64
2022/10/11 04:28:02;;;;;;;;;;;4.10;99.90;;;;;;5093393;28;20011;-63
2022/10/11 04:30:28;;;;;;;;;;;4.10;99.90;;;;;;5093927;28;20553;-64
2022/10/11 04:32:54;;;;;;;;;;;4.20;99.90;;;;;;5097669;28;19920;-64
2022/10/11 04:35:20;;;;;;;;;;;4.40;99.90;;;;;;5094352;28;19916;-63
2022/10/11 04:37:45;;;;;;;;;;;4.30;99.90;;;;;;5095198;28;19919;-63
2022/10/11 04:40:11;;;;;;;;;;;4.20;99.90;;;;;;5087937;28;19920;-63
2022/10/11 04:42:36;;;;;;;;;;;4.10;99.90;;;;;;5084641;28;19912;-63
2022/10/11 04:45:02;;;;;;;;;;;4.10;99.90;;;;;;5094479;28;19912;-63
2022/10/11 04:47:28;;;;;;;;;;;4.00;99.90;;;;;;5090328;28;19919;-64
2022/10/11 04:49:53;;;;;;;;;;;4.00;99.90;;;;;;5090819;28;19931;-64
2022/10/11 04:52:18;;;;;;;;;;;3.90;99.90;;;;;;5091416;28;19935;-63
2022/10/11 04:54:44;;;;;;;;;;;3.90;99.90;;;;;;5089213;28;19916;-63
2022/10/11 04:57:09;;;;;;;;;;;4.00;99.90;;;;;;5097750;28;19969;-64
2022/10/11 04:59:35;;;;;;;;;;;4.00;99.90;;;;;;5096500;28;19919;-64
2022/10/11 05:02:00;;;;;;;;;;;4.00;99.90;;;;;;5091486;28;19916;-64
2022/10/11 05:04:26;;;;;;;;;;;3.90;99.90;;;;;;5092998;28;19912;-64
2022/10/11 05:06:52;;;;;;;;;;;3.70;99.90;;;;;;5094073;28;19916;-64
2022/10/11 05:09:17;;;;;;;;;;;3.60;99.90;;;;;;5097159;28;19991;-64
2022/10/11 05:11:43;;;;;;;;;;;3.60;99.90;;;;;;5096332;28;19923;-64
2022/10/11 05:14:08;;;;;;;;;;;3.40;99.90;;;;;;5087223;28;19912;-63
2022/10/11 05:16:34;;;;;;;;;;;3.70;99.90;;;;;;5089867;28;19924;-63
2022/10/11 05:18:59;;;;;;;;;;;3.80;99.90;;;;;;5091889;28;19916;-64
2022/10/11 05:21:26;;;;;;;;;;;3.50;99.90;;;;;;5090460;28;19913;-64
2022/10/11 05:23:52;;;;;;;;;;;3.50;99.90;;;;;;5097911;28;19954;-63
2022/10/11 05:26:19;;;;;;;;;;;3.70;99.90;;;;;;5101699;28;19912;-62
2022/10/11 05:28:46;;;;;;;;;;;3.60;99.90;;;;;;5101678;28;20007;-62
2022/10/11 05:31:11;;;;;;;;;;;3.50;99.90;;;;;;5097999;28;19912;-64
2022/10/11 05:33:37;;;;;;;;;;;3.50;99.90;;;;;;5094040;28;19944;-62
2022/10/11 05:36:03;;;;;;;;;;;3.40;99.90;;;;;;5104857;28;19952;-63
2022/10/11 05:38:29;;;;;;;;;;;3.40;99.90;;;;;;5096360;28;19917;-65
2022/10/11 05:40:57;;;;;;;;;;;3.50;99.90;;;;;;5091840;28;19917;-63
2022/10/11 05:43:22;;;;;;;;;;;3.40;99.90;;;;;;5102430;28;19913;-63
2022/10/11 05:45:48;;;;;;;;;;;3.40;99.90;;;;;;5101343;28;19919;-62
2022/10/11 05:48:14;;;;;;;;;;;3.50;99.90;;;;;;5100983;28;19916;-63
2022/10/11 05:50:39;;;;;;;;;;;3.40;99.90;;;;;;5099621;28;19943;-63
2022/10/11 05:53:05;;;;;;;;;;;3.40;99.90;;;;;;5090538;28;19919;-63
2022/10/11 05:55:35;;;;;;;;;;;3.30;99.90;;;;;;5092068;28;20254;-64
2022/10/11 05:58:00;;;;;;;;;;;3.30;99.90;;;;;;5097361;28;19943;-63
2022/10/11 06:00:26;;;;;;;;;;;3.30;99.90;;;;;;5092060;28;19924;-63
2022/10/11 06:02:51;;;;;;;;;;;3.30;99.90;;;;;;5083901;28;19948;-63
2022/10/11 06:05:17;;;;;;;;;;;3.20;99.90;;;;;;5089735;28;20097;-63
2022/10/11 06:07:43;;;;;;;;;;;3.20;99.90;;;;;;5095581;28;19913;-64
2022/10/11 06:10:09;;;;;;;;;;;3.30;99.90;;;;;;5087377;28;20014;-63
2022/10/11 06:12:34;;;;;;;;;;;3.20;99.90;;;;;;5095618;28;20351;-63
2022/10/11 06:15:00;;;;;;;;;;;3.20;99.90;;;;;;5088430;28;19933;-63
2022/10/11 06:17:25;;;;;;;;;;;3.30;99.90;;;;;;5088258;28;19996;-64
2022/10/11 06:19:51;;;;;;;;;;;3.30;99.90;;;;;;5080296;28;20086;-63
2022/10/11 06:22:17;;;;;;;;;;;3.20;99.90;;;;;;5083043;28;20450;-63
2022/10/11 06:24:43;;;;;;;;;;;3.20;99.90;;;;;;5087216;28;19912;-63
2022/10/11 06:27:08;;;;;;;;;;;3.40;99.90;;;;;;5090459;28;19920;-63
2022/10/11 06:29:35;;;;;;;;;;;3.30;99.90;;;;;;5089043;28;19920;-63
2022/10/11 06:32:01;;;;;;;;;;;3.30;99.90;;;;;;5094144;28;19916;-63
2022/10/11 06:34:27;;;;;;;;;;;3.30;99.90;;;;;;5095466;28;19920;-63
2022/10/11 06:36:52;;;;;;;;;;;3.30;99.90;;;;;;5087746;28;19924;-63
2022/10/11 06:39:18;;;;;;;;;;;3.40;99.90;;;;;;5094208;28;19978;-64
2022/10/11 06:41:43;;;;;;;;;;;3.40;99.90;;;;;;5094345;28;19972;-62
2022/10/11 06:44:13;;;;;;;;;;;3.30;99.90;;;;;;5098689;28;19912;-63
2022/10/11 06:46:39;;;;;;;;;;;3.30;99.90;;;;;;5090347;28;19916;-64
2022/10/11 06:49:06;;;;;;;;;;;3.30;99.90;;;;;;5090171;28;19999;-63
2022/10/11 06:51:34;;;;;;;;;;;3.30;99.90;;;;;;5091900;28;19926;-62
2022/10/11 06:54:00;;;;;;;;;;;3.30;99.90;;;;;;5094719;28;19920;-63
2022/10/11 06:56:26;;;;;;;;;;;3.10;99.90;;;;;;5085717;28;21099;-64
2022/10/11 06:58:53;;;;;;;;;;;3.10;99.90;;;;;;5087745;28;20381;-63
2022/10/11 07:01:20;;;;;;;;;;;3.10;99.90;;;;;;5084227;28;19985;-64
2022/10/11 07:03:46;;;;;;;;;;;3.10;99.90;;;;;;5089700;28;19920;-63
2022/10/11 07:06:13;;;;;;;;;;;3.10;99.90;;;;;;5101035;28;19916;-63
2022/10/11 07:08:39;;;;;;;;;;;3.10;99.90;;;;;;5106829;28;19904;-63
2022/10/11 07:11:06;;;;;;;;;;;3.10;99.90;;;;;;5101499;28;19908;-64
2022/10/11 07:13:31;;;;;;;;;;;3.20;99.90;;;;;;5090844;28;19934;-64
2022/10/11 07:15:59;;;;;;;;;;;3.30;99.90;;;;;;5082643;28;19912;-65
2022/10/11 07:18:25;;;;;;;;;;;3.40;99.90;;;;;;5078010;28;19947;-64
2022/10/11 07:20:50;;;;;;;;;;;3.40;99.90;;;;;;5087330;28;20431;-64
2022/10/11 07:23:16;;;;;;;;;;;3.40;99.90;;;;;;5087115;28;19919;-64
2022/10/11 07:25:41;;;;;;;;;;;3.40;99.90;;;;;;5088618;28;19912;-64
2022/10/11 07:28:07;;;;;;;;;;;3.40;99.90;;;;;;5082089;28;19995;-65
2022/10/11 07:30:34;;;;;;;;;;;3.40;99.90;;;;;;5081904;28;19924;-65
2022/10/11 07:33:00;;;;;;;;;;;3.40;99.90;;;;;;5081099;28;19916;-64
2022/10/11 07:35:25;;;;;;;;;;;3.50;99.90;;;;;;5078464;28;19916;-63
2022/10/11 07:37:51;;;;;;;;;;;3.40;99.90;;;;;;5082008;28;19920;-64
2022/10/11 07:40:16;;;;;;;;;;;3.50;99.90;;;;;;5088127;28;19916;-63
2022/10/11 07:42:42;;;;;;;;;;;3.50;99.90;;;;;;5087900;28;19912;-63
2022/10/11 07:45:07;;;;;;;;;;;3.60;99.90;;;;;;5068773;28;19989;-62
2022/10/11 07:47:33;;;;;;;;;;;3.70;99.90;;;;;;5081349;28;20278;-63
2022/10/11 07:49:58;;;;;;;;;;;3.90;99.90;;;;;;5081536;28;19920;-64
2022/10/11 07:52:24;;;;;;;;;;;4.00;99.90;;;;;;5072640;28;19912;-64
2022/10/11 07:54:49;;;;;;;;;;;4.10;99.90;;;;;;5081447;28;19916;-64
2022/10/11 07:57:15;;;;;;;;;;;4.20;99.90;;;;;;5078429;28;19977;-62
2022/10/11 07:59:41;;;;;;;;;;;4.20;99.90;;;;;;5088877;28;19973;-63
2022/10/11 08:02:13;;;;;;;;;;;4.40;99.90;;;;;;5090078;28;19976;-64
2022/10/11 08:04:38;;;;;;;;;;;4.40;99.90;;;;;;5088832;28;20446;-63
2022/10/11 08:07:04;;;;;;;;;;;4.50;99.90;;;;;;5080889;28;19912;-65
2022/10/11 08:09:30;;;;;;;;;;;4.50;99.90;;;;;;5089597;28;19924;-64
2022/10/11 08:11:56;;;;;;;;;;;4.70;99.90;;;;;;5076715;28;19912;-63
2022/10/11 08:14:21;;;;;;;;;;;4.90;99.90;;;;;;5085686;28;19948;-64
2022/10/11 08:16:47;;;;;;;;;;;4.90;99.90;;;;;;5081320;28;19916;-64
2022/10/11 08:19:12;;;;;;;;;;;5.00;99.90;;;;;;5080569;28;19923;-63
2022/10/11 08:21:40;;;;;;;;;;;5.10;99.90;;;;;;5080015;28;20457;-63
2022/10/11 08:24:06;;;;;;;;;;;5.20;99.90;;;;;;5083611;28;19919;-63
2022/10/11 08:26:32;;;;;;;;;;;5.30;99.90;;;;;;5075511;28;19920;-63
2022/10/11 08:29:00;;;;;;;;;;;5.50;99.90;;;;;;5088890;28;19939;-64
2022/10/11 08:31:26;;;;;;;;;;;5.80;99.90;;;;;;5091674;28;19912;-64
2022/10/11 08:33:52;;;;;;;;;;;5.90;99.90;;;;;;5086612;28;19919;-63
2022/10/11 08:36:17;;;;;;;;;;;5.90;99.90;;;;;;5093959;28;19912;-63
2022/10/11 08:38:43;;;;;;;;;;;6.10;99.90;;;;;;5086347;28;20342;-64
2022/10/11 08:41:35;;;;;;;;;;;6.20;99.90;;;;;;5078759;28;20947;-64
2022/10/11 08:44:19;;;;;;;;;;;6.20;99.90;;;;;;5075864;28;20007;-64
2022/10/11 08:46:47;;;;;;;;;;;6.30;99.90;;;;;;5096610;28;19908;-64
2022/10/11 08:49:23;;;;;;;;;;;6.50;99.90;;;;;;5097468;28;20386;-63
2022/10/11 08:51:51;;;;;;;;;;;6.60;99.90;;;;;;5087913;28;19913;-64
2022/10/11 08:54:21;;;;;;;;;;;6.80;99.90;;;;;;5086340;28;19966;-64
2022/10/11 08:56:49;;;;;;;;;;;6.90;99.90;;;;;;5096822;28;19920;-63
2022/10/11 08:59:18;;;;;;;;;;;7.00;99.90;;;;;;5097966;28;19970;-64
2022/10/11 09:01:46;;;;;;;;;;;7.20;99.90;;;;;;5086263;28;19916;-64
2022/10/11 09:04:15;;;;;;;;;;;7.40;99.90;;;;;;5095744;28;19916;-63
2022/10/11 09:07:10;;;;;;;;;;;7.60;99.90;;;;;;5089180;28;20321;-64
2022/10/11 09:09:54;;;;;;;;;;;7.70;99.90;;;;;;5092741;28;19973;-64
2022/10/11 09:12:39;;;;;;;;;;;7.90;99.90;;;;;;5103163;28;19961;-63
2022/10/11 09:15:08;;;;;;;;;;;8.00;99.90;;;;;;5098662;28;19913;-64
2022/10/11 09:17:42;;;;;;;;;;;8.10;99.90;;;;;;5085494;28;19913;-63
2022/10/11 09:20:11;;;;;;;;;;;8.30;99.90;;;;;;5101936;28;19987;-63
2022/10/11 09:22:55;;;;;;;;;;;8.50;99.90;;;;;;5085303;28;19921;-64
2022/10/11 09:25:24;;;;;;;;;;;8.70;99.90;;;;;;5086012;28;20362;-63
2022/10/11 09:27:55;;;;;;;;;;;8.70;99.90;;;;;;5098711;28;19978;-64
2022/10/11 09:30:21;;;;;;;;;;;8.90;99.90;;;;;;5090827;28;19921;-64
2022/10/11 09:32:50;;;;;;;;;;;9.00;99.90;;;;;;5101990;28;19919;-63
2022/10/11 09:35:17;;;;;;;;;;;9.20;99.90;;;;;;5098754;28;19972;-64
2022/10/11 09:37:54;;;;;;;;;;;9.30;99.90;;;;;;5094832;28;20277;-63
2022/10/11 09:40:36;;;;;;;;;;;9.40;99.90;;;;;;5091253;28;19966;-64
2022/10/11 09:43:01;;;;;;;;;;;9.60;99.90;;;;;;5088153;28;19944;-64
2022/10/11 09:45:27;;;;;;;;;;;9.80;99.90;;;;;;5088025;28;19939;-63
2022/10/11 09:47:55;;;;;;;;;;;10.00;99.90;;;;;;5085902;28;19909;-63
2022/10/11 09:50:22;;;;;;;;;;;10.10;99.90;;;;;;5083737;28;19920;-62
2022/10/11 09:52:52;;;;;;;;;;;10.30;99.90;;;;;;5099288;28;19931;-62
2022/10/11 09:55:32;;;;;;;;;;;10.40;99.90;;;;;;5089280;28;19951;-63
2022/10/11 09:57:58;;;;;;;;;;;10.50;99.90;;;;;;5087886;28;19923;-62
2022/10/11 10:00:24;;;;;;;;;;;10.50;99.90;;;;;;5091393;28;19983;-63
2022/10/11 10:02:51;;;;;;;;;;;10.60;99.90;;;;;;5094631;28;19983;-62
2022/10/11 10:05:30;;;;;;;;;;;10.80;99.90;;;;;;5091181;28;20002;-63
2022/10/11 10:07:56;;;;;;;;;;;11.00;99.90;;;;;;5095777;28;19912;-64
2022/10/11 10:10:28;;;;;;;;;;;11.20;99.90;;;;;;5098108;28;19927;-62
2022/10/11 10:12:55;;;;;;;;;;;11.40;99.90;;;;;;5094779;28;19912;-63
2022/10/11 10:15:20;;;;;;;;;;;11.60;99.90;;;;;;5090712;28;19981;-63
2022/10/11 10:17:49;;;;;;;;;;;11.70;99.90;;;;;;5094099;28;19912;-63
2022/10/11 10:20:38;;;;;;;;;;;11.80;99.90;;;;;;5093540;28;20369;-63
2022/10/11 10:23:08;;;;;;;;;;;12.00;99.90;;;;;;5091331;28;19961;-63
2022/10/11 10:25:36;;;;;;;;;;;12.20;99.90;;;;;;5093758;28;19966;-63
2022/10/11 10:28:03;;;;;;;;;;;12.30;99.90;;;;;;5091328;28;19923;-64
2022/10/11 10:30:29;;;;;;;;;;;12.50;99.90;;;;;;5085920;28;19929;-63
2022/10/11 10:33:10;;;;;;;;;;;12.60;99.90;;;;;;5094589;28;19924;-64
2022/10/11 10:35:47;;;;;;;;;;;12.70;99.90;;;;;;5087277;28;19913;-63
2022/10/11 10:38:15;;;;;;;;;;;13.00;99.90;;;;;;5093601;28;19912;-63
2022/10/11 10:40:46;;;;;;;;;;;13.10;99.90;;;;;;5096336;28;19973;-63
2022/10/11 10:43:14;;;;;;;;;;;13.20;99.90;;;;;;5093612;28;19947;-64
2022/10/11 10:45:50;;;;;;;;;;;13.20;99.90;;;;;;5089781;28;19912;-64
2022/10/11 10:48:34;;;;;;;;;;;13.40;99.90;;;;;;5096975;28;19942;-63
2022/10/11 10:51:16;;;;;;;;;;;13.50;99.90;;;;;;5089823;28;19928;-63
2022/10/11 10:53:45;;;;;;;;;;;13.60;99.90;;;;;;5091035;28;19912;-64
2022/10/11 10:56:15;;;;;;;;;;;13.80;99.90;;;;;;5089270;28;19972;-64
2022/10/11 10:58:44;;;;;;;;;;;13.70;99.90;;;;;;5096099;28;20141;-62
2022/10/11 11:01:13;;;;;;;;;;;13.70;99.90;;;;;;5093240;28;19926;-63
2022/10/11 11:03:43;;;;;;;;;;;13.80;99.90;;;;;;5085823;28;20178;-64
2022/10/11 11:06:16;;;;;;;;;;;13.90;99.90;;;;;;5095505;28;19913;-63
2022/10/11 11:08:48;;;;;;;;;;;13.90;99.90;;;;;;5091027;28;20253;-63
2022/10/11 11:11:16;;;;;;;;;;;13.90;99.90;;;;;;5091879;28;19924;-63
2022/10/11 11:13:53;;;;;;;;;;;13.90;99.90;;;;;;5095018;28;19934;-63
2022/10/11 11:16:30;;;;;;;;;;;13.80;95.30;;;;;;5089783;28;19916;-62
2022/10/11 11:18:59;;;;;;;;;;;13.80;93.00;;;;;;5093491;28;19912;-63
2022/10/11 11:21:33;;;;;;;;;;;14.00;91.10;;;;;;5108188;28;19979;-64
2022/10/11 11:23:58;;;;;;;;;;;13.90;89.30;;;;;;5092254;28;19947;-64
2022/10/11 11:26:30;;;;;;;;;;;13.80;88.30;;;;;;5097588;28;19912;-64
2022/10/11 11:28:55;;;;;;;;;;;13.90;87.90;;;;;;5094694;28;19973;-62
2022/10/11 11:31:44;;;;;;;;;;;14.00;87.80;;;;;;5096175;28;19924;-62
2022/10/11 11:34:18;;;;;;;;;;;14.10;86.50;;;;;;5087762;28;19983;-63
2022/10/11 11:36:50;;;;;;;;;;;14.30;85.60;;;;;;5092955;28;19912;-62
2022/10/11 11:39:19;;;;;;;;;;;14.40;84.80;;;;;;5088806;28;19916;-63
2022/10/11 11:42:05;;;;;;;;;;;14.30;83.90;;;;;;5094218;28;19915;-64
2022/10/11 11:44:36;;;;;;;;;;;14.20;83.20;;;;;;5097227;28;20369;-62
2022/10/11 11:47:10;;;;;;;;;;;14.30;82.70;;;;;;5092135;28;20014;-64
2022/10/11 11:49:37;;;;;;;;;;;14.40;80.80;;;;;;5094317;28;19926;-64
2022/10/11 11:52:04;;;;;;;;;;;14.50;77.10;;;;;;5091627;28;19931;-63
2022/10/11 11:54:42;;;;;;;;;;;14.50;76.70;;;;;;5087540;28;19935;-66
2022/10/11 11:57:31;;;;;;;;;;;14.50;76.00;;;;;;5097740;28;19912;-63
2022/10/11 11:59:59;;;;;;;;;;;14.70;74.60;;;;;;5093681;28;19912;-64
2022/10/11 12:02:34;;;;;;;;;;;14.80;73.10;;;;;;5088551;28;19965;-63
2022/10/11 12:05:00;;;;;;;;;;;14.80;73.00;;;;;;5088892;28;19912;-63
2022/10/11 12:07:26;;;;;;;;;;;14.90;72.60;;;;;;5093789;28;19944;-63
2022/10/11 12:09:54;;;;;;;;;;;14.80;71.80;;;;;;5094377;28;19920;-63
2022/10/11 12:12:30;;;;;;;;;;;14.80;65.30;;;;;;5090213;28;20515;-63
2022/10/11 12:15:08;;;;;;;;;;;14.70;65.70;;;;;;5087842;28;19916;-63
2022/10/11 12:17:53;;;;;;;;;;;14.60;64.80;;;;;;5094635;28;19916;-64
2022/10/11 12:20:21;;;;;;;;;;;14.60;65.60;;;;;;5090570;28;19963;-63
2022/10/11 12:22:52;;;;;;;;;;;14.60;63.70;;;;;;5090456;28;20142;-65
2022/10/11 12:25:21;;;;;;;;;;;14.80;61.60;;;;;;5093541;28;19942;-64
2022/10/11 12:27:46;;;;;;;;;;;14.70;63.30;;;;;;5095586;28;20428;-64
2022/10/11 12:30:31;;;;;;;;;;;14.70;64.10;;;;;;5089661;28;19956;-64
2022/10/11 12:33:12;;;;;;;;;;;14.90;62.00;;;;;;5095822;28;19950;-63
2022/10/11 12:35:41;;;;;;;;;;;15.00;62.00;;;;;;5096759;28;19948;-64
2022/10/11 12:38:13;;;;;;;;;;;14.90;59.50;;;;;;5091033;28;19917;-63
2022/10/11 12:40:40;;;;;;;;;;;15.10;60.10;;;;;;5098380;28;19920;-63
2022/10/11 12:43:15;;;;;;;;;;;15.10;62.20;;;;;;5111000;28;19913;-63
2022/10/11 12:45:46;;;;;;;;;;;15.10;63.10;;;;;;5096886;28;20249;-63
2022/10/11 12:48:24;;;;;;;;;;;14.90;64.00;;;;;;5094121;28;19958;-64
2022/10/11 12:50:50;;;;;;;;;;;15.00;64.40;;;;;;5095964;28;19935;-64
2022/10/11 12:53:22;;;;;;;;;;;15.10;65.50;;;;;;5095701;28;19912;-63
2022/10/11 12:55:48;;;;;;;;;;;15.30;65.20;;;;;;5101782;28;20627;-63
2022/10/11 12:58:23;;;;;;;;;;;15.20;63.10;;;;;;5105203;28;19983;-63
2022/10/11 13:00:53;;;;;;;;;;;15.30;62.70;;;;;;5101464;28;19978;-63
2022/10/11 13:03:31;;;;;;;;;;;15.60;61.90;;;;;;5103213;28;19947;-63
2022/10/11 13:05:57;;;;;;;;;;;15.60;61.10;;;;;;5092652;28;19916;-63
2022/10/11 13:08:28;;;;;;;;;;;15.70;61.60;;;;;;5101603;28;20270;-63
2022/10/11 13:10:55;;;;;;;;;;;15.80;61.40;;;;;;5097422;28;19925;-63
2022/10/11 13:13:37;;;;;;;;;;;16.10;60.80;;;;;;5093245;28;19912;-63
2022/10/11 13:16:13;;;;;;;;;;;16.00;61.70;;;;;;5095111;28;20357;-63
2022/10/11 13:18:43;;;;;;;;;;;16.10;62.10;;;;;;5098754;28;19912;-65
2022/10/11 13:21:24;;;;;;;;;;;16.30;60.70;;;;;;5095795;28;19917;-63
2022/10/11 13:23:53;;;;;;;;;;;16.50;59.60;;;;;;5094159;28;19943;-62
2022/10/11 13:26:19;;;;;;;;;;;16.50;59.10;;;;;;5094858;28;20079;-63
2022/10/11 13:28:45;;;;;;;;;;;16.60;58.40;;;;;;5095708;28;19916;-65
2022/10/11 13:31:10;;;;;;;;;;;16.80;57.10;;;;;;5097982;28;19931;-64
2022/10/11 13:33:38;;;;;;;;;;;16.80;56.20;;;;;;5095020;28;19916;-63
2022/10/11 13:36:05;;;;;;;;;;;16.80;56.00;;;;;;5094200;28;19923;-63
2022/10/11 13:38:32;;;;;;;;;;;16.90;56.30;;;;;;5102939;28;19967;-64
2022/10/11 13:40:59;;;;;;;;;;;17.00;56.00;;;;;;5099008;28;19912;-63
2022/10/11 13:43:27;;;;;;;;;;;16.90;55.80;;;;;;5095861;28;19920;-63
2022/10/11 13:45:53;;;;;;;;;;;16.90;56.20;;;;;;5096556;28;19930;-64
2022/10/11 13:48:19;;;;;;;;;;;16.70;56.20;;;;;;5096095;28;19922;-62
2022/10/11 13:51:03;;;;;;;;;;;16.40;56.50;;;;;;5096574;28;19971;-63
2022/10/11 13:53:28;;;;;;;;;;;16.50;56.50;;;;;;5096677;28;19934;-63
2022/10/11 13:56:18;;;;;;;;;;;16.50;57.40;;;;;;5095491;28;19951;-65
2022/10/11 13:58:45;;;;;;;;;;;16.60;57.80;;;;;;5103312;28;20345;-64
2022/10/11 14:01:16;;;;;;;;;;;16.80;57.00;;;;;;5098494;28;19996;-63
2022/10/11 14:03:44;;;;;;;;;;;16.90;56.00;;;;;;5096024;28;19920;-63
2022/10/11 14:06:09;;;;;;;;;;;16.70;56.10;;;;;;5099264;28;19912;-63
2022/10/11 14:08:40;;;;;;;;;;;16.60;56.80;;;;;;5103742;28;19947;-64
2022/10/11 14:11:07;;;;;;;;;;;16.60;57.40;;;;;;5094036;28;19920;-62
2022/10/11 14:13:32;;;;;;;;;;;16.50;57.90;;;;;;5093550;28;19923;-63
2022/10/11 14:16:01;;;;;;;;;;;16.60;58.70;;;;;;5087982;28;20207;-63
2022/10/11 14:18:35;;;;;;;;;;;16.40;60.10;;;;;;5093237;28;19969;-64
2022/10/11 14:21:20;;;;;;;;;;;16.30;60.30;;;;;;5094289;28;19923;-63
2022/10/11 14:23:46;;;;;;;;;;;16.30;59.60;;;;;;5100315;28;19966;-62
2022/10/11 14:26:12;;;;;;;;;;;16.30;60.70;;;;;;5098361;28;19912;-63
2022/10/11 14:28:38;;;;;;;;;;;16.40;59.50;;;;;;5094895;28;19940;-65
2022/10/11 14:31:03;;;;;;;;;;;16.40;59.70;;;;;;5098710;28;19927;-63
2022/10/11 14:33:29;;;;;;;;;;;16.40;60.00;;;;;;5098119;28;20323;-63
2022/10/11 14:35:54;;;;;;;;;;;16.30;60.10;;;;;;5095391;28;19913;-65